createdAt,value
2023-04-02T00:00:21.351Z,93.33
2023-04-02T00:01:21.289Z,93.33
2023-04-02T00:02:21.350Z,92.92
2023-04-02T00:03:21.311Z,93.13
2023-04-02T00:04:21.259Z,92.87
2023-04-02T00:05:21.245Z,92.92
2023-04-02T00:06:21.226Z,92.92
2023-04-02T00:07:21.217Z,93.23
2023-04-02T00:08:21.202Z,93.13
2023-04-02T00:09:21.189Z,93.43
2023-04-02T00:10:21.176Z,93.33
2023-04-02T00:11:21.166Z,93.13
2023-04-02T00:12:21.149Z,93.13
2023-04-02T00:13:21.149Z,93.02
2023-04-02T00:14:21.132Z,93.02
2023-04-02T00:15:21.116Z,92.72
2023-04-02T00:16:21.176Z,92.66
2023-04-02T00:17:21.093Z,92.87
2023-04-02T00:18:21.116Z,93.07
2023-04-02T00:19:21.069Z,92.87
2023-04-02T00:20:21.061Z,93.28
2023-04-02T00:21:21.050Z,93.89
2023-04-02T00:23:21.017Z,93.93
2023-04-02T00:24:21.015Z,94.54
2023-04-02T00:25:20.990Z,94.75
2023-04-02T00:26:20.982Z,94.54
2023-04-02T00:27:20.968Z,94.75
2023-04-02T00:28:20.953Z,94.95
2023-04-02T00:29:20.951Z,94.85
2023-04-02T00:30:20.941Z,94.85
2023-04-02T00:31:20.918Z,94.75
2023-04-02T00:32:21.024Z,94.85
2023-04-02T00:33:20.900Z,94.75
2023-04-02T00:34:20.882Z,94.34
2023-04-02T00:35:20.866Z,94.75
2023-04-02T00:36:20.899Z,94.24
2023-04-02T00:37:20.846Z,94.75
2023-04-02T00:38:20.839Z,94.65
2023-04-02T00:39:20.822Z,94.44
2023-04-02T00:40:20.820Z,94.14
2023-04-02T00:41:20.788Z,93.87
2023-04-02T00:42:20.785Z,93.98
2023-04-02T00:43:20.764Z,94.28
2023-04-02T00:44:20.760Z,94.54
2023-04-02T00:45:20.741Z,94.54
2023-04-02T00:46:20.782Z,94.03
2023-04-02T00:47:20.715Z,93.77
2023-04-02T00:48:20.741Z,93.67
2023-04-02T00:49:20.702Z,93.56
2023-04-02T00:50:20.680Z,93.77
2023-04-02T00:51:20.711Z,93.56
2023-04-02T00:52:20.652Z,93.77
2023-04-02T00:53:20.638Z,93.77
2023-04-02T00:54:20.629Z,93.77
2023-04-02T00:55:20.615Z,93.87
2023-04-02T00:56:20.605Z,93.87
2023-04-02T00:57:20.648Z,94.07
2023-04-02T00:58:20.575Z,94.32
2023-04-02T00:59:20.563Z,94.48
2023-04-02T01:00:20.564Z,94.63
2023-04-02T01:01:20.559Z,94.69
2023-04-02T01:02:20.553Z,94.89
2023-04-02T01:03:20.643Z,94.89
2023-04-02T01:04:20.523Z,94.59
2023-04-02T01:05:20.482Z,94.69
2023-04-02T01:06:20.471Z,94.59
2023-04-02T01:07:20.458Z,94.69
2023-04-02T01:08:20.450Z,94.48
2023-04-02T01:09:20.435Z,94.79
2023-04-02T01:10:20.418Z,95.10
2023-04-02T01:11:20.412Z,95.10
2023-04-02T01:12:20.399Z,95.00
2023-04-02T01:13:20.383Z,94.39
2023-04-02T01:14:20.368Z,94.63
2023-04-02T01:15:20.360Z,94.73
2023-04-02T01:16:20.417Z,94.73
2023-04-02T01:17:20.331Z,95.14
2023-04-02T01:18:20.326Z,95.05
2023-04-02T01:19:20.304Z,94.94
2023-04-02T01:20:20.324Z,95.25
2023-04-02T01:21:20.277Z,95.25
2023-04-02T01:22:20.267Z,95.25
2023-04-02T01:23:20.254Z,95.05
2023-04-02T01:24:20.245Z,95.05
2023-04-02T01:25:20.229Z,95.05
2023-04-02T01:26:20.217Z,94.94
2023-04-02T01:27:20.202Z,94.63
2023-04-02T01:28:20.204Z,94.63
2023-04-02T01:29:20.317Z,94.63
2023-04-02T01:30:20.185Z,94.12
2023-04-02T01:31:20.169Z,94.43
2023-04-02T01:32:20.145Z,94.32
2023-04-02T01:33:20.129Z,94.53
2023-04-02T01:34:20.118Z,94.73
2023-04-02T01:35:20.107Z,94.63
2023-04-02T01:36:20.216Z,94.63
2023-04-02T01:37:20.077Z,94.43
2023-04-02T01:38:20.069Z,94.63
2023-04-02T01:39:20.175Z,94.73
2023-04-02T01:40:20.049Z,94.98
2023-04-02T01:41:20.027Z,95.05
2023-04-02T01:42:20.024Z,95.25
2023-04-02T01:43:20.002Z,95.14
2023-04-02T01:44:20.011Z,95.09
2023-04-02T01:45:19.988Z,95.19
2023-04-02T01:46:20.030Z,95.29
2023-04-02T01:47:19.949Z,95.29
2023-04-02T01:48:20.025Z,95.39
2023-04-02T01:49:19.924Z,95.50
2023-04-02T01:50:19.962Z,95.55
2023-04-02T01:51:19.904Z,95.66
2023-04-02T01:52:19.919Z,95.66
2023-04-02T01:53:19.881Z,95.66
2023-04-02T01:54:19.869Z,95.70
2023-04-02T01:55:19.858Z,95.70
2023-04-02T01:56:19.840Z,95.86
2023-04-02T01:57:19.877Z,95.55
2023-04-02T01:58:19.806Z,95.76
2023-04-02T01:59:19.794Z,95.66
2023-04-02T02:00:19.789Z,95.76
2023-04-02T02:01:19.977Z,95.76
2023-04-02T02:02:19.805Z,96.01
2023-04-02T02:03:19.778Z,95.86
2023-04-02T02:04:19.773Z,95.97
2023-04-02T02:05:19.720Z,96.06
2023-04-02T02:06:19.725Z,95.86
2023-04-02T02:07:19.698Z,95.66
2023-04-02T02:08:19.705Z,95.55
2023-04-02T02:09:19.675Z,95.25
2023-04-02T02:10:19.655Z,95.35
2023-04-02T02:11:19.645Z,95.14
2023-04-02T02:12:19.630Z,95.25
2023-04-02T02:13:19.618Z,95.45
2023-04-02T02:14:19.606Z,95.66
2023-04-02T02:15:19.592Z,95.66
2023-04-02T02:16:19.604Z,95.45
2023-04-02T02:17:19.607Z,95.25
2023-04-02T02:18:19.567Z,95.14
2023-04-02T02:19:19.543Z,95.05
2023-04-02T02:20:19.540Z,95.05
2023-04-02T02:21:19.531Z,95.14
2023-04-02T02:22:19.512Z,95.14
2023-04-02T02:23:19.496Z,95.14
2023-04-02T02:24:19.518Z,95.05
2023-04-02T02:25:19.476Z,95.14
2023-04-02T02:26:19.462Z,95.25
2023-04-02T02:27:19.443Z,95.45
2023-04-02T02:28:19.432Z,95.45
2023-04-02T02:29:19.422Z,95.35
2023-04-02T02:30:19.408Z,95.25
2023-04-02T02:31:19.469Z,95.25
2023-04-02T02:32:19.385Z,95.25
2023-04-02T02:33:19.366Z,95.45
2023-04-02T02:34:19.360Z,95.25
2023-04-02T02:35:19.354Z,95.41
2023-04-02T02:36:19.351Z,95.61
2023-04-02T02:37:19.326Z,95.51
2023-04-02T02:38:19.306Z,95.31
2023-04-02T02:39:19.291Z,95.00
2023-04-02T02:40:19.304Z,94.89
2023-04-02T02:41:19.273Z,94.79
2023-04-02T02:42:19.259Z,94.59
2023-04-02T02:43:19.250Z,94.48
2023-04-02T02:44:19.230Z,94.59
2023-04-02T02:45:19.216Z,94.59
2023-04-02T02:46:19.212Z,95.00
2023-04-02T02:47:19.201Z,94.79
2023-04-02T02:48:19.184Z,94.79
2023-04-02T02:49:19.184Z,94.79
2023-04-02T02:50:19.159Z,94.59
2023-04-02T02:51:19.140Z,94.89
2023-04-02T02:52:19.132Z,95.20
2023-04-02T02:53:19.115Z,95.31
2023-04-02T02:54:19.103Z,95.31
2023-04-02T02:55:19.087Z,95.41
2023-04-02T02:56:19.114Z,95.31
2023-04-02T02:57:19.119Z,95.20
2023-04-02T02:58:19.058Z,95.20
2023-04-02T02:59:19.037Z,95.10
2023-04-02T03:00:19.054Z,95.00
2023-04-02T03:01:19.036Z,94.69
2023-04-02T03:02:19.041Z,95.16
2023-04-02T03:03:19.073Z,94.95
2023-04-02T03:04:19.082Z,94.85
2023-04-02T03:05:18.969Z,94.85
2023-04-02T03:06:18.949Z,94.85
2023-04-02T03:07:18.950Z,95.06
2023-04-02T03:08:18.953Z,95.11
2023-04-02T03:09:18.913Z,95.01
2023-04-02T03:10:18.908Z,94.81
2023-04-02T03:11:18.886Z,94.81
2023-04-02T03:12:18.896Z,94.60
2023-04-02T03:13:18.869Z,94.50
2023-04-02T03:14:18.866Z,94.19
2023-04-02T03:15:18.844Z,94.09
2023-04-02T03:16:18.845Z,94.09
2023-04-02T03:17:18.831Z,93.99
2023-04-02T03:18:18.802Z,93.99
2023-04-02T03:19:18.783Z,94.19
2023-04-02T03:20:18.778Z,94.19
2023-04-02T03:21:18.763Z,94.09
2023-04-02T03:22:18.753Z,94.09
2023-04-02T03:23:20.432Z,94.03
2023-04-02T03:24:18.736Z,93.93
2023-04-02T03:25:18.706Z,93.83
2023-04-02T03:26:18.708Z,93.73
2023-04-02T03:27:18.696Z,94.03
2023-04-02T03:28:18.700Z,94.34
2023-04-02T03:29:18.663Z,94.44
2023-04-02T03:30:18.654Z,94.65
2023-04-02T03:31:18.678Z,94.89
2023-04-02T03:32:18.624Z,94.89
2023-04-02T03:33:18.622Z,95.00
2023-04-02T03:34:18.615Z,95.00
2023-04-02T03:35:18.587Z,95.00
2023-04-02T03:36:18.624Z,95.00
2023-04-02T03:37:18.561Z,95.00
2023-04-02T03:38:18.549Z,94.89
2023-04-02T03:39:18.549Z,94.69
2023-04-02T03:40:18.533Z,94.59
2023-04-02T03:41:18.521Z,94.89
2023-04-02T03:42:18.499Z,95.00
2023-04-02T03:43:18.496Z,95.10
2023-04-02T03:44:18.501Z,95.10
2023-04-02T03:45:18.462Z,95.16
2023-04-02T03:46:18.516Z,95.16
2023-04-02T03:47:18.438Z,95.06
2023-04-02T03:48:18.425Z,94.95
2023-04-02T03:49:18.423Z,94.95
2023-04-02T03:50:18.397Z,95.06
2023-04-02T03:51:18.397Z,95.16
2023-04-02T03:52:18.374Z,94.95
2023-04-02T03:53:18.357Z,94.95
2023-04-02T03:54:18.354Z,94.65
2023-04-02T03:55:18.335Z,94.54
2023-04-02T03:56:18.323Z,94.65
2023-04-02T03:57:18.388Z,95.00
2023-04-02T03:58:18.296Z,95.10
2023-04-02T03:59:18.287Z,95.31
2023-04-02T04:00:18.297Z,95.51
2023-04-02T04:01:18.257Z,95.31
2023-04-02T04:02:18.299Z,95.20
2023-04-02T04:03:18.241Z,95.31
2023-04-02T04:04:18.283Z,95.51
2023-04-02T04:05:18.215Z,95.41
2023-04-02T04:06:20.127Z,95.41
2023-04-02T04:07:18.180Z,95.41
2023-04-02T04:08:18.171Z,95.61
2023-04-02T04:09:18.159Z,95.61
2023-04-02T04:10:18.166Z,95.61
2023-04-02T04:11:18.156Z,95.57
2023-04-02T04:12:18.133Z,95.47
2023-04-02T04:13:18.122Z,95.26
2023-04-02T04:14:18.106Z,95.26
2023-04-02T04:15:18.083Z,95.47
2023-04-02T04:16:18.124Z,95.67
2023-04-02T04:17:18.055Z,95.67
2023-04-02T04:18:18.044Z,95.52
2023-04-02T04:19:18.031Z,95.32
2023-04-02T04:20:18.019Z,95.06
2023-04-02T04:21:18.005Z,95.26
2023-04-02T04:22:17.992Z,95.42
2023-04-02T04:24:17.966Z,95.22
2023-04-02T04:25:17.968Z,95.22
2023-04-02T04:26:17.942Z,95.01
2023-04-02T04:27:17.928Z,95.01
2023-04-02T04:28:17.916Z,94.81
2023-04-02T04:29:17.904Z,95.01
2023-04-02T04:30:17.891Z,95.01
2023-04-02T04:31:17.879Z,94.91
2023-04-02T04:32:18.073Z,95.11
2023-04-02T04:33:17.853Z,95.22
2023-04-02T04:34:17.856Z,95.42
2023-04-02T04:35:17.833Z,95.42
2023-04-02T04:36:17.868Z,95.42
2023-04-02T04:37:17.802Z,95.22
2023-04-02T04:38:17.794Z,95.11
2023-04-02T04:39:17.776Z,95.32
2023-04-02T04:40:17.770Z,95.11
2023-04-02T04:41:17.756Z,95.01
2023-04-02T04:42:17.744Z,95.22
2023-04-02T04:43:17.726Z,95.32
2023-04-02T04:44:17.718Z,95.11
2023-04-02T04:45:17.703Z,95.11
2023-04-02T04:46:17.705Z,95.01
2023-04-02T04:47:17.677Z,95.06
2023-04-02T04:48:17.692Z,95.26
2023-04-02T04:49:17.652Z,95.26
2023-04-02T04:50:17.642Z,95.88
2023-04-02T04:51:17.625Z,95.61
2023-04-02T04:52:17.616Z,95.66
2023-04-02T04:53:17.614Z,96.11
2023-04-02T04:54:17.588Z,96.72
2023-04-02T04:55:17.582Z,96.63
2023-04-02T04:56:19.665Z,97.14
2023-04-02T04:57:17.607Z,97.29
2023-04-02T04:58:17.542Z,97.55
2023-04-02T04:59:17.531Z,97.65
2023-04-02T05:00:17.510Z,97.59
2023-04-02T05:01:17.545Z,97.39
2023-04-02T05:02:17.535Z,97.39
2023-04-02T05:03:17.476Z,97.43
2023-04-02T05:04:17.514Z,97.84
2023-04-02T05:05:17.454Z,97.80
2023-04-02T05:06:17.444Z,97.80
2023-04-02T05:07:17.425Z,97.80
2023-04-02T05:08:17.426Z,97.29
2023-04-02T05:09:17.406Z,97.33
2023-04-02T05:10:17.385Z,97.43
2023-04-02T05:11:17.382Z,97.43
2023-04-02T05:12:17.361Z,97.43
2023-04-02T05:13:17.358Z,97.54
2023-04-02T05:14:17.331Z,97.22
2023-04-02T05:15:17.324Z,97.43
2023-04-02T05:16:17.396Z,97.43
2023-04-02T05:17:17.298Z,97.22
2023-04-02T05:18:17.279Z,97.38
2023-04-02T05:19:17.268Z,97.47
2023-04-02T05:20:17.298Z,97.43
2023-04-02T05:21:17.242Z,97.27
2023-04-02T05:22:17.228Z,97.47
2023-04-02T05:23:17.219Z,97.58
2023-04-02T05:24:17.202Z,97.38
2023-04-02T05:25:17.191Z,97.47
2023-04-02T05:26:17.176Z,97.58
2023-04-02T05:27:17.166Z,97.47
2023-04-02T05:28:17.152Z,97.27
2023-04-02T05:29:17.143Z,97.47
2023-04-02T05:30:17.828Z,97.27
2023-04-02T05:31:17.130Z,97.27
2023-04-02T05:32:17.103Z,97.17
2023-04-02T05:33:17.088Z,97.27
2023-04-02T05:34:17.075Z,96.96
2023-04-02T05:35:17.063Z,96.96
2023-04-02T05:36:17.128Z,97.07
2023-04-02T05:37:17.037Z,96.96
2023-04-02T05:38:17.023Z,96.66
2023-04-02T05:39:17.011Z,96.45
2023-04-02T05:40:16.996Z,96.66
2023-04-02T05:41:16.988Z,96.66
2023-04-02T05:42:16.973Z,96.66
2023-04-02T05:43:16.960Z,96.50
2023-04-02T05:44:16.947Z,96.60
2023-04-02T05:45:16.936Z,96.29
2023-04-02T05:46:16.959Z,96.39
2023-04-02T05:47:16.909Z,96.39
2023-04-02T05:48:16.895Z,96.29
2023-04-02T05:49:16.891Z,96.39
2023-04-02T05:50:16.869Z,96.19
2023-04-02T05:51:16.874Z,96.29
2023-04-02T05:52:16.868Z,96.08
2023-04-02T05:53:16.836Z,96.19
2023-04-02T05:54:16.817Z,95.98
2023-04-02T05:55:16.823Z,95.78
2023-04-02T05:56:16.796Z,95.78
2023-04-02T05:57:16.835Z,95.78
2023-04-02T05:58:34.503Z,95.88
2023-04-02T05:59:16.782Z,95.53
2023-04-02T06:00:16.742Z,95.57
2023-04-02T06:01:16.728Z,95.16
2023-04-02T06:02:16.736Z,95.26
2023-04-02T06:03:16.766Z,95.06
2023-04-02T06:04:16.872Z,95.26
2023-04-02T06:05:16.682Z,95.37
2023-04-02T06:06:16.659Z,95.37
2023-04-02T06:07:16.661Z,95.47
2023-04-02T06:08:16.663Z,95.57
2023-04-02T06:09:16.624Z,95.53
2023-04-02T06:10:16.609Z,95.47
2023-04-02T06:11:16.598Z,95.47
2023-04-02T06:12:16.584Z,95.57
2023-04-02T06:13:16.570Z,95.57
2023-04-02T06:14:16.560Z,95.67
2023-04-02T06:15:16.543Z,95.57
2023-04-02T06:16:16.758Z,95.88
2023-04-02T06:17:16.518Z,95.57
2023-04-02T06:18:16.505Z,95.53
2023-04-02T06:19:16.494Z,95.63
2023-04-02T06:20:16.494Z,94.85
2023-04-02T06:21:16.470Z,95.12
2023-04-02T06:22:16.457Z,95.01
2023-04-02T06:23:16.439Z,95.32
2023-04-02T06:24:16.452Z,94.76
2023-04-02T06:25:16.414Z,94.40
2023-04-02T06:26:16.400Z,94.09
2023-04-02T06:27:16.394Z,93.89
2023-04-02T06:28:16.374Z,93.72
2023-04-02T06:29:16.361Z,93.72
2023-04-02T06:30:16.351Z,93.99
2023-04-02T06:31:16.339Z,94.09
2023-04-02T06:32:16.326Z,94.09
2023-04-02T06:33:16.324Z,94.19
2023-04-02T06:34:16.297Z,94.09
2023-04-02T06:35:16.298Z,93.82
2023-04-02T06:36:16.289Z,93.82
2023-04-02T06:37:16.284Z,93.82
2023-04-02T06:38:16.269Z,93.99
2023-04-02T06:39:16.240Z,93.78
2023-04-02T06:40:16.247Z,93.42
2023-04-02T06:41:16.214Z,93.42
2023-04-02T06:42:16.195Z,93.21
2023-04-02T06:43:16.186Z,93.82
2023-04-02T06:44:16.183Z,93.42
2023-04-02T06:45:16.163Z,93.52
2023-04-02T06:46:16.236Z,93.21
2023-04-02T06:47:16.136Z,92.49
2023-04-02T06:48:16.122Z,92.29
2023-04-02T06:49:16.109Z,92.08
2023-04-02T06:50:16.109Z,91.67
2023-04-02T06:51:16.084Z,91.46
2023-04-02T06:52:16.069Z,91.88
2023-04-02T06:53:16.058Z,92.08
2023-04-02T06:54:16.121Z,91.98
2023-04-02T06:55:16.054Z,92.18
2023-04-02T06:56:16.042Z,92.18
2023-04-02T06:57:16.028Z,91.83
2023-04-02T06:58:15.993Z,91.73
2023-04-02T06:59:16.007Z,91.94
2023-04-02T07:00:15.974Z,91.73
2023-04-02T07:01:16.005Z,91.83
2023-04-02T07:02:15.946Z,91.16
2023-04-02T07:03:15.931Z,91.46
2023-04-02T07:04:15.985Z,91.61
2023-04-02T07:05:15.916Z,91.41
2023-04-02T07:06:15.887Z,91.65
2023-04-02T07:07:15.882Z,91.76
2023-04-02T07:08:15.863Z,92.43
2023-04-02T07:09:15.850Z,92.43
2023-04-02T07:10:15.833Z,92.07
2023-04-02T07:11:15.821Z,91.76
2023-04-02T07:12:15.833Z,91.76
2023-04-02T07:13:15.793Z,91.44
2023-04-02T07:14:15.779Z,91.76
2023-04-02T07:15:15.769Z,91.76
2023-04-02T07:16:15.808Z,92.07
2023-04-02T07:17:15.744Z,92.27
2023-04-02T07:18:15.726Z,92.23
2023-04-02T07:19:15.713Z,92.12
2023-04-02T07:20:15.699Z,91.44
2023-04-02T07:21:15.707Z,91.14
2023-04-02T07:22:15.673Z,91.55
2023-04-02T07:23:17.029Z,91.61
2023-04-02T07:24:15.652Z,91.24
2023-04-02T07:25:15.637Z,91.51
2023-04-02T07:26:15.620Z,91.82
2023-04-02T07:27:15.617Z,90.79
2023-04-02T07:28:15.620Z,91.10
2023-04-02T07:29:15.585Z,91.30
2023-04-02T07:30:15.577Z,91.51
2023-04-02T07:31:15.584Z,91.71
2023-04-02T07:32:15.543Z,91.51
2023-04-02T07:33:15.531Z,91.46
2023-04-02T07:34:15.519Z,90.54
2023-04-02T07:35:15.517Z,90.48
2023-04-02T07:36:15.541Z,90.17
2023-04-02T07:37:15.482Z,90.69
2023-04-02T07:38:15.498Z,90.69
2023-04-02T07:39:15.458Z,90.63
2023-04-02T07:40:15.442Z,90.79
2023-04-02T07:41:15.430Z,90.38
2023-04-02T07:42:15.416Z,89.97
2023-04-02T07:43:15.404Z,90.11
2023-04-02T07:44:15.411Z,90.25
2023-04-02T07:45:15.377Z,90.93
2023-04-02T07:46:15.411Z,91.44
2023-04-02T07:47:15.351Z,90.63
2023-04-02T07:48:15.336Z,90.63
2023-04-02T07:49:15.327Z,90.83
2023-04-02T07:50:15.317Z,90.73
2023-04-02T07:51:15.302Z,90.05
2023-04-02T07:52:15.283Z,90.05
2023-04-02T07:53:15.275Z,90.63
2023-04-02T07:54:15.264Z,91.55
2023-04-02T07:55:15.253Z,91.04
2023-04-02T07:56:15.234Z,90.42
2023-04-02T07:57:15.353Z,90.31
2023-04-02T07:58:15.212Z,90.21
2023-04-02T07:59:15.197Z,90.11
2023-04-02T08:00:15.210Z,90.73
2023-04-02T08:01:15.174Z,91.04
2023-04-02T08:02:15.193Z,90.42
2023-04-02T08:03:15.226Z,90.05
2023-04-02T08:04:15.201Z,90.46
2023-04-02T08:05:15.115Z,90.67
2023-04-02T08:06:15.105Z,90.46
2023-04-02T08:07:15.097Z,90.67
2023-04-02T08:08:15.076Z,89.95
2023-04-02T08:09:15.070Z,89.37
2023-04-02T08:10:15.054Z,90.19
2023-04-02T08:11:15.080Z,90.71
2023-04-02T08:12:15.029Z,90.44
2023-04-02T08:13:15.013Z,90.50
2023-04-02T08:14:15.022Z,90.30
2023-04-02T08:15:14.991Z,89.84
2023-04-02T08:16:15.025Z,90.05
2023-04-02T08:17:14.970Z,90.46
2023-04-02T08:18:14.951Z,90.36
2023-04-02T08:19:14.941Z,90.05
2023-04-02T08:20:14.926Z,90.46
2023-04-02T08:21:16.461Z,90.15
2023-04-02T08:22:14.901Z,90.36
2023-04-02T08:23:14.888Z,90.77
2023-04-02T08:25:14.870Z,90.87
2023-04-02T08:26:14.848Z,90.67
2023-04-02T08:27:14.855Z,90.09
2023-04-02T08:28:14.831Z,89.99
2023-04-02T08:29:14.817Z,89.89
2023-04-02T08:30:14.806Z,90.34
2023-04-02T08:31:14.858Z,91.02
2023-04-02T08:32:14.801Z,90.61
2023-04-02T08:33:14.768Z,90.40
2023-04-02T08:34:14.746Z,90.34
2023-04-02T08:35:14.761Z,90.71
2023-04-02T08:36:14.749Z,90.61
2023-04-02T08:37:14.719Z,90.30
2023-04-02T08:38:14.699Z,89.64
2023-04-02T08:39:14.705Z,89.95
2023-04-02T08:40:14.669Z,89.64
2023-04-02T08:41:14.656Z,88.88
2023-04-02T08:42:14.650Z,88.20
2023-04-02T08:43:14.632Z,88.78
2023-04-02T08:44:14.617Z,88.98
2023-04-02T08:46:16.638Z,89.59
2023-04-02T08:47:14.578Z,88.88
2023-04-02T08:48:14.591Z,89.02
2023-04-02T08:49:14.558Z,89.23
2023-04-02T08:50:14.537Z,88.82
2023-04-02T08:51:14.524Z,89.23
2023-04-02T08:52:14.514Z,89.33
2023-04-02T08:53:14.501Z,89.02
2023-04-02T08:54:14.483Z,89.12
2023-04-02T08:55:14.473Z,89.33
2023-04-02T08:56:14.457Z,89.12
2023-04-02T08:57:14.462Z,89.29
2023-04-02T08:58:14.434Z,89.08
2023-04-02T08:59:14.420Z,88.51
2023-04-02T09:00:14.404Z,88.10
2023-04-02T09:01:14.406Z,88.51
2023-04-02T09:02:14.380Z,88.72
2023-04-02T09:03:14.377Z,88.92
2023-04-02T09:04:14.416Z,88.30
2023-04-02T09:05:14.342Z,89.19
2023-04-02T09:06:16.059Z,88.88
2023-04-02T09:07:14.339Z,88.47
2023-04-02T09:08:14.303Z,88.16
2023-04-02T09:09:14.298Z,87.75
2023-04-02T09:10:14.277Z,87.03
2023-04-02T09:11:14.263Z,86.93
2023-04-02T09:12:14.251Z,87.75
2023-04-02T09:13:14.249Z,86.82
2023-04-02T09:14:14.243Z,87.13
2023-04-02T09:15:14.211Z,86.86
2023-04-02T09:16:14.287Z,86.96
2023-04-02T09:17:14.185Z,87.11
2023-04-02T09:18:14.214Z,87.31
2023-04-02T09:19:14.176Z,87.67
2023-04-02T09:20:14.193Z,87.83
2023-04-02T09:21:14.135Z,88.14
2023-04-02T09:22:14.128Z,88.14
2023-04-02T09:23:14.111Z,87.62
2023-04-02T09:24:14.108Z,88.24
2023-04-02T09:25:14.089Z,88.75
2023-04-02T09:26:14.080Z,88.55
2023-04-02T09:27:14.061Z,88.45
2023-04-02T09:28:14.056Z,88.45
2023-04-02T09:29:14.047Z,88.96
2023-04-02T09:30:14.026Z,88.75
2023-04-02T09:31:14.039Z,89.06
2023-04-02T09:32:13.996Z,88.24
2023-04-02T09:33:13.999Z,88.69
2023-04-02T09:34:13.974Z,89.00
2023-04-02T09:35:24.750Z,89.00
2023-04-02T09:36:15.687Z,89.31
2023-04-02T09:37:13.950Z,89.62
2023-04-02T09:38:13.930Z,89.21
2023-04-02T09:39:13.913Z,89.31
2023-04-02T09:40:13.898Z,88.80
2023-04-02T09:41:13.884Z,89.05
2023-04-02T09:42:13.873Z,89.11
2023-04-02T09:43:13.854Z,89.11
2023-04-02T09:44:13.843Z,88.90
2023-04-02T09:45:13.835Z,88.90
2023-04-02T09:46:13.981Z,89.00
2023-04-02T09:47:13.802Z,88.69
2023-04-02T09:48:13.810Z,88.73
2023-04-02T09:49:13.787Z,89.87
2023-04-02T09:50:13.765Z,89.52
2023-04-02T09:51:13.756Z,88.53
2023-04-02T09:52:13.766Z,89.21
2023-04-02T09:53:13.724Z,88.90
2023-04-02T09:54:13.724Z,89.00
2023-04-02T09:55:13.698Z,87.77
2023-04-02T09:56:13.688Z,87.87
2023-04-02T09:57:13.695Z,88.14
2023-04-02T09:58:13.659Z,88.00
2023-04-02T09:59:13.664Z,86.66
2023-04-02T10:00:25.339Z,86.56
2023-04-02T10:01:15.647Z,86.51
2023-04-02T10:02:13.610Z,86.41
2023-04-02T10:03:13.594Z,86.78
2023-04-02T10:04:13.611Z,86.88
2023-04-02T10:05:14.538Z,86.31
2023-04-02T10:06:13.571Z,86.93
2023-04-02T10:07:13.546Z,86.62
2023-04-02T10:08:13.553Z,87.13
2023-04-02T10:09:13.518Z,86.62
2023-04-02T10:10:13.533Z,86.04
2023-04-02T10:11:13.532Z,86.35
2023-04-02T10:12:13.486Z,85.77
2023-04-02T10:13:13.470Z,86.08
2023-04-02T10:14:13.454Z,86.66
2023-04-02T10:15:13.445Z,86.24
2023-04-02T10:16:13.495Z,86.45
2023-04-02T10:17:13.583Z,85.01
2023-04-02T10:18:13.407Z,85.46
2023-04-02T10:19:13.389Z,86.08
2023-04-02T10:20:13.419Z,86.04
2023-04-02T10:21:13.375Z,86.72
2023-04-02T10:22:13.382Z,85.59
2023-04-02T10:23:13.341Z,85.01
2023-04-02T10:24:13.351Z,84.71
2023-04-02T10:25:13.314Z,85.01
2023-04-02T10:26:13.304Z,84.91
2023-04-02T10:27:13.290Z,84.09
2023-04-02T10:28:13.280Z,83.92
2023-04-02T10:29:13.272Z,84.23
2023-04-02T10:30:13.343Z,84.95
2023-04-02T10:31:13.365Z,86.76
2023-04-02T10:32:13.308Z,83.67
2023-04-02T10:33:13.218Z,84.60
2023-04-02T10:34:13.210Z,83.88
2023-04-02T10:35:13.197Z,83.78
2023-04-02T10:36:13.189Z,84.09
2023-04-02T10:37:13.171Z,84.09
2023-04-02T10:38:13.153Z,83.37
2023-04-02T10:39:13.140Z,83.88
2023-04-02T10:40:13.170Z,83.99
2023-04-02T10:41:13.117Z,84.19
2023-04-02T10:42:13.105Z,83.99
2023-04-02T10:43:13.098Z,82.24
2023-04-02T10:44:20.072Z,83.99
2023-04-02T10:45:15.066Z,84.60
2023-04-02T10:46:13.132Z,83.37
2023-04-02T10:47:13.042Z,83.02
2023-04-02T10:48:13.073Z,82.34
2023-04-02T10:49:13.057Z,83.85
2023-04-02T10:50:13.006Z,82.81
2023-04-02T10:51:12.995Z,82.34
2023-04-02T10:52:12.981Z,82.65
2023-04-02T10:53:12.970Z,82.75
2023-04-02T10:54:12.960Z,82.28
2023-04-02T10:55:12.948Z,83.57
2023-04-02T10:56:12.962Z,83.67
2023-04-02T10:57:12.939Z,82.09
2023-04-02T10:58:12.905Z,82.65
2023-04-02T10:59:12.897Z,82.71
2023-04-02T11:00:13.011Z,82.40
2023-04-02T11:01:12.895Z,82.34
2023-04-02T11:02:12.898Z,82.81
2023-04-02T11:03:12.910Z,82.09
2023-04-02T11:04:14.202Z,82.09
2023-04-02T11:05:12.807Z,81.68
2023-04-02T11:06:12.799Z,81.79
2023-04-02T11:07:14.846Z,82.09
2023-04-02T11:08:12.774Z,81.48
2023-04-02T11:09:12.752Z,81.89
2023-04-02T11:10:12.745Z,82.09
2023-04-02T11:11:12.727Z,82.51
2023-04-02T11:12:12.744Z,81.89
2023-04-02T11:13:12.701Z,81.62
2023-04-02T11:14:12.693Z,82.61
2023-04-02T11:15:12.673Z,82.30
2023-04-02T11:16:12.735Z,81.58
2023-04-02T11:17:12.646Z,82.92
2023-04-02T11:18:12.635Z,83.80
2023-04-02T11:19:12.621Z,83.39
2023-04-02T11:20:12.608Z,82.47
2023-04-02T11:21:12.608Z,82.74
2023-04-02T11:22:12.583Z,81.54
2023-04-02T11:23:12.581Z,81.51
2023-04-02T11:24:12.557Z,81.51
2023-04-02T11:25:12.545Z,82.84
2023-04-02T11:26:12.531Z,80.99
2023-04-02T11:27:12.514Z,81.20
2023-04-02T11:28:12.529Z,80.27
2023-04-02T11:29:12.495Z,80.82
2023-04-02T11:30:12.475Z,80.82
2023-04-02T11:31:12.480Z,81.07
2023-04-02T11:32:12.465Z,81.58
2023-04-02T11:33:12.434Z,81.58
2023-04-02T11:34:12.424Z,82.55
2023-04-02T11:35:12.411Z,82.65
2023-04-02T11:36:12.433Z,82.58
2023-04-02T11:37:12.383Z,82.17
2023-04-02T11:38:12.380Z,82.34
2023-04-02T11:39:17.289Z,83.16
2023-04-02T11:40:12.346Z,81.72
2023-04-02T11:41:12.335Z,81.52
2023-04-02T11:42:12.323Z,82.24
2023-04-02T11:43:12.310Z,81.31
2023-04-02T11:44:12.321Z,81.62
2023-04-02T11:45:12.281Z,81.10
2023-04-02T11:46:12.283Z,81.48
2023-04-02T11:47:12.259Z,81.28
2023-04-02T11:48:12.243Z,82.51
2023-04-02T11:49:12.230Z,81.44
2023-04-02T11:50:12.218Z,81.44
2023-04-02T11:51:12.207Z,81.24
2023-04-02T11:52:12.746Z,81.68
2023-04-02T11:53:12.190Z,81.89
2023-04-02T11:54:12.170Z,81.68
2023-04-02T11:55:12.153Z,80.96
2023-04-02T11:56:12.141Z,79.66
2023-04-02T11:57:12.140Z,81.28
2023-04-02T11:58:12.113Z,82.09
2023-04-02T11:59:12.102Z,80.56
2023-04-02T12:00:12.119Z,81.28
2023-04-02T12:01:12.074Z,81.07
2023-04-02T12:02:12.154Z,80.86
2023-04-02T12:03:12.095Z,81.07
2023-04-02T12:04:12.040Z,80.72
2023-04-02T12:05:12.038Z,81.14
2023-04-02T12:06:12.012Z,81.71
2023-04-02T12:07:11.998Z,79.87
2023-04-02T12:08:11.995Z,79.87
2023-04-02T12:09:11.972Z,79.97
2023-04-02T12:10:11.958Z,79.15
2023-04-02T12:11:11.950Z,77.74
2023-04-02T12:12:11.932Z,78.81
2023-04-02T12:13:11.917Z,79.80
2023-04-02T12:14:11.903Z,79.11
2023-04-02T12:15:11.904Z,79.29
2023-04-02T12:16:11.910Z,79.11
2023-04-02T12:17:12.021Z,80.01
2023-04-02T12:18:11.860Z,80.41
2023-04-02T12:19:11.835Z,79.69
2023-04-02T12:20:11.821Z,79.80
2023-04-02T12:21:11.808Z,79.69
2023-04-02T12:22:11.796Z,79.32
2023-04-02T12:23:11.782Z,80.24
2023-04-02T12:24:11.768Z,80.82
2023-04-02T12:25:11.761Z,80.27
2023-04-02T12:26:11.742Z,80.07
2023-04-02T12:27:11.729Z,78.90
2023-04-02T12:28:11.723Z,78.22
2023-04-02T12:29:11.700Z,77.81
2023-04-02T12:30:11.690Z,78.12
2023-04-02T12:31:11.738Z,78.74
2023-04-02T12:32:11.688Z,78.97
2023-04-02T12:33:11.656Z,77.36
2023-04-02T12:34:11.635Z,76.95
2023-04-02T12:35:11.623Z,77.33
2023-04-02T12:36:11.691Z,76.10
2023-04-02T12:37:11.598Z,75.79
2023-04-02T12:38:11.582Z,76.13
2023-04-02T12:39:11.570Z,76.95
2023-04-02T12:40:11.556Z,77.98
2023-04-02T12:41:11.541Z,76.99
2023-04-02T12:42:11.530Z,77.23
2023-04-02T12:43:11.515Z,77.95
2023-04-02T12:44:11.526Z,78.09
2023-04-02T12:45:11.491Z,79.15
2023-04-02T12:46:11.506Z,79.77
2023-04-02T12:47:11.462Z,79.60
2023-04-02T12:48:11.518Z,80.59
2023-04-02T12:50:11.434Z,80.38
2023-04-02T12:51:11.417Z,80.38
2023-04-02T12:52:11.411Z,80.18
2023-04-02T12:53:11.383Z,79.91
2023-04-02T12:54:11.370Z,80.46
2023-04-02T12:55:11.368Z,80.87
2023-04-02T12:56:11.353Z,80.94
2023-04-02T12:57:11.393Z,80.87